Paso De Los Toros, Uruguay

7:22 AM UYT on August 24, 2016 (GMT -0300)
Santa Bernardina International | | Change Station

Elev 305 ft 33.35 °S, 56.50 °W | Updated 22 minutes ago

Clear
Clear
39 °F
Feels Like 37 °F
N
4
Wind Variable Wind from NNE

Today
High -- | Low -- °F
--% Chance of Precip.
Yesterday
High -- | Low -- °F
Precip. -- in
Pressure 30.12 in
Visibility 5.6 miles
Clouds
Windchill 37 °F
Dew Point 37 °F
Humidity 93%
Rainfall 0.00 in
Snow Depth Not available.
7:12 AM 6:24 PM
Waning Gibbous, 58% visible
METAR SUDU 241000Z 03003KT 9000 NSC 04/03 Q1020
Pressure 30.12 in
Visibility 5.6 miles
Clouds
Windchill 37 °F
Dew Point 37 °F
Humidity 93%
Rainfall 0.00 in
Snow Depth Not available.
7:12 AM 6:24 PM
Waning Gibbous, 58% visible
METAR SUDU 241000Z 03003KT 9000 NSC 04/03 Q1020

10-Day Weather Forecast

No radar image for this location.
×

Almanac

Astronomy

Aug. 24, 2016 Rise Set
Actual Time
Civil Twilight
Nautical Twilight
Astronomical Twilight
Moon
Length of Visible Light
Length of Day
Tomorrow will be .
, % of the Moon is Illuminated

Today's Extremes

Country Highs Country Lows

Community

WunderPhotos

Upload Photos

1,934,560 photos uploaded!

WunderBlog® & News

Nearby

Air Quality

  Air Quality AQ Index Pollutant
Not available.

Snow Depth

Station Depth Elevation

Earthquake Activity

City Distance Mag. Time & Date
Minimum magnitude displayed is 2.5.

Coastal Water Temperatures

Place Temperature

Stations

Nearby Weather Stations

Station Location Temp. Windchill Dew Point Humidity Wind Precip. Elev Updated Type